Wetterdaten: Woche 03.08.09 - 09.08.09 (KW32)
Datum Zeit Temperatur Luftfeuchte Luftdruck Niederschlag Windrichtung Wind
03.08.2009 00:00 14,9 C 96 % 1014,2 hPa 0,0 l/m W-SW 7,1 km/h (2 Bft)
03.08.2009 01:00 14,8 C 95 % 1014,1 hPa 0,0 l/m W-SW 4,4 km/h (1 Bft)
03.08.2009 02:00 14,2 C 94 % 1014,0 hPa 0,0 l/m SW 3,7 km/h (1 Bft)
03.08.2009 03:00 13,5 C 95 % 1013,7 hPa 0,0 l/m N 0,7 km/h (0 Bft)
03.08.2009 04:00 13,2 C 97 % 1013,8 hPa 0,0 l/m N 0,5 km/h (0 Bft)
03.08.2009 05:00 13,3 C 97 % 1013,6 hPa 0,0 l/m N 0,7 km/h (0 Bft)
03.08.2009 06:00 13,2 C 97 % 1013,3 hPa 0,0 l/m W 1,6 km/h (1 Bft)
03.08.2009 07:00 13,8 C 97 % 1013,5 hPa 0,0 l/m W-NW 2,4 km/h (1 Bft)
03.08.2009 08:00 14,6 C 94 % 1013,4 hPa 0,0 l/m W-NW 1,9 km/h (1 Bft)
03.08.2009 09:00 15,0 C 93 % 1013,7 hPa 0,4 l/m NO 5,6 km/h (1 Bft)
03.08.2009 10:00 15,0 C 94 % 1014,1 hPa 0,8 l/m N-NO 6,0 km/h (2 Bft)
03.08.2009 11:00 15,3 C 93 % 1014,2 hPa 0,0 l/m NO 6,8 km/h (2 Bft)
03.08.2009 12:00 16,0 C 91 % 1014,2 hPa 0,2 l/m N-NO 8,0 km/h (2 Bft)
03.08.2009 13:00 16,7 C 88 % 1014,0 hPa 0,0 l/m NO 10,0 km/h (2 Bft)
03.08.2009 14:00 16,6 C 89 % 1014,0 hPa 0,0 l/m N-NO 12,4 km/h (3 Bft)
03.08.2009 15:00 16,7 C 87 % 1013,9 hPa 0,0 l/m N-NO 10,2 km/h (2 Bft)
03.08.2009 16:00 16,9 C 88 % 1013,6 hPa 0,0 l/m N 8,4 km/h (2 Bft)
03.08.2009 17:00 16,7 C 89 % 1013,7 hPa 0,0 l/m N 6,8 km/h (2 Bft)
03.08.2009 18:00 16,5 C 90 % 1013,9 hPa 0,2 l/m N 7,8 km/h (2 Bft)
03.08.2009 19:00 16,4 C 91 % 1014,2 hPa 0,2 l/m N-NO 6,8 km/h (2 Bft)
03.08.2009 20:00 16,1 C 92 % 1014,8 hPa 0,4 l/m N 2,5 km/h (1 Bft)
03.08.2009 21:00 15,6 C 92 % 1015,4 hPa 0,0 l/m N 0,7 km/h (0 Bft)
03.08.2009 22:00 15,1 C 93 % 1015,4 hPa 0,0 l/m NW 3,5 km/h (1 Bft)
03.08.2009 23:00 14,9 C 95 % 1015,7 hPa 0,0 l/m W-NW 9,8 km/h (2 Bft)
04.08.2009 00:00 15,0 C 94 % 1015,9 hPa 0,0 l/m NW 8,2 km/h (2 Bft)
04.08.2009 01:00 14,8 C 91 % 1016,2 hPa 0,0 l/m N-NW 8,8 km/h (2 Bft)
04.08.2009 02:00 13,9 C 89 % 1016,5 hPa 0,0 l/m N-NW 7,8 km/h (2 Bft)
04.08.2009 03:00 13,0 C 90 % 1016,7 hPa 0,0 l/m N-NW 7,2 km/h (2 Bft)
04.08.2009 04:00 12,3 C 91 % 1017,1 hPa 0,0 l/m N-NW 5,9 km/h (2 Bft)
04.08.2009 05:00 11,6 C 91 % 1017,6 hPa 0,0 l/m N 0,1 km/h (0 Bft)
04.08.2009 06:00 10,7 C 93 % 1018,2 hPa 0,0 l/m N 0,1 km/h (0 Bft)
04.08.2009 07:00 11,6 C 97 % 1018,5 hPa 0,0 l/m N 1,1 km/h (0 Bft)
04.08.2009 08:00 14,6 C 89 % 1018,8 hPa 0,0 l/m N-NW 4,8 km/h (1 Bft)
04.08.2009 09:00 17,1 C 79 % 1019,0 hPa 0,0 l/m N-NO 7,9 km/h (2 Bft)
04.08.2009 10:00 18,0 C 74 % 1019,1 hPa 0,0 l/m N-NO 9,2 km/h (2 Bft)
04.08.2009 11:00 19,3 C 62 % 1019,1 hPa 0,0 l/m N-NO 8,7 km/h (2 Bft)
04.08.2009 12:00 20,6 C 51 % 1019,0 hPa 0,0 l/m O-SO 12,3 km/h (3 Bft)
04.08.2009 13:00 20,3 C 52 % 1018,9 hPa 0,0 l/m NO 9,7 km/h (2 Bft)
04.08.2009 14:00 20,9 C 49 % 1018,8 hPa 0,0 l/m SO 9,1 km/h (2 Bft)
04.08.2009 15:00 21,3 C 47 % 1018,4 hPa 0,0 l/m NO 8,0 km/h (2 Bft)
04.08.2009 16:00 21,1 C 49 % 1018,5 hPa 0,0 l/m O-SO 9,9 km/h (2 Bft)
04.08.2009 17:00 21,6 C 49 % 1018,5 hPa 0,0 l/m O 10,9 km/h (2 Bft)
04.08.2009 18:00 20,9 C 53 % 1018,5 hPa 0,0 l/m O 6,7 km/h (2 Bft)
04.08.2009 19:00 20,9 C 51 % 1018,4 hPa 0,0 l/m O 8,0 km/h (2 Bft)
04.08.2009 20:00 18,9 C 61 % 1018,7 hPa 0,0 l/m NO 5,9 km/h (2 Bft)
04.08.2009 21:00 17,7 C 72 % 1019,2 hPa 0,0 l/m O-NO 3,7 km/h (1 Bft)
04.08.2009 22:00 15,2 C 83 % 1019,3 hPa 0,0 l/m N 0,8 km/h (0 Bft)
04.08.2009 23:00 14,0 C 88 % 1019,4 hPa 0,0 l/m N 2,7 km/h (1 Bft)
05.08.2009 00:00 13,4 C 90 % 1019,3 hPa 0,0 l/m N-NW 4,3 km/h (1 Bft)
05.08.2009 01:00 13,1 C 90 % 1019,2 hPa 0,0 l/m N-NW 2,7 km/h (1 Bft)
05.08.2009 02:00 12,6 C 91 % 1018,8 hPa 0,0 l/m N-NW 3,9 km/h (1 Bft)
05.08.2009 03:00 12,2 C 92 % 1018,9 hPa 0,0 l/m N-NW 4,8 km/h (1 Bft)
05.08.2009 04:00 12,1 C 92 % 1018,9 hPa 0,0 l/m N-NW 4,9 km/h (1 Bft)
05.08.2009 05:00 11,8 C 93 % 1018,7 hPa 0,0 l/m N-NW 3,7 km/h (1 Bft)
05.08.2009 06:00 11,6 C 93 % 1018,8 hPa 0,0 l/m N-NW 2,9 km/h (1 Bft)
05.08.2009 07:00 12,4 C 94 % 1019,0 hPa 0,0 l/m N 3,3 km/h (1 Bft)
05.08.2009 08:00 15,6 C 83 % 1018,9 hPa 0,0 l/m NO 6,1 km/h (2 Bft)
05.08.2009 09:00 18,5 C 69 % 1018,8 hPa 0,0 l/m O 14,2 km/h (3 Bft)
05.08.2009 10:00 20,2 C 62 % 1018,4 hPa 0,0 l/m O-NO 19,2 km/h (3 Bft)
05.08.2009 11:00 21,5 C 58 % 1018,2 hPa 0,0 l/m O 21,0 km/h (4 Bft)
05.08.2009 12:00 22,9 C 53 % 1018,0 hPa 0,0 l/m NO 19,6 km/h (3 Bft)
05.08.2009 13:00 23,6 C 51 % 1017,8 hPa 0,0 l/m O 19,6 km/h (3 Bft)
05.08.2009 14:00 24,1 C 49 % 1017,6 hPa 0,0 l/m O-SO 21,6 km/h (4 Bft)
05.08.2009 15:00 24,8 C 46 % 1017,3 hPa 0,0 l/m O 22,1 km/h (4 Bft)
05.08.2009 16:00 24,9 C 46 % 1017,2 hPa 0,0 l/m O 20,5 km/h (4 Bft)
05.08.2009 17:00 24,7 C 45 % 1017,1 hPa 0,0 l/m O 17,2 km/h (3 Bft)
05.08.2009 18:00 24,1 C 48 % 1017,1 hPa 0,0 l/m O-NO 15,6 km/h (3 Bft)
05.08.2009 19:00 23,4 C 51 % 1017,1 hPa 0,0 l/m O-NO 14,5 km/h (3 Bft)
05.08.2009 20:00 21,9 C 57 % 1017,4 hPa 0,0 l/m NO 8,6 km/h (2 Bft)
05.08.2009 21:00 19,5 C 68 % 1017,6 hPa 0,0 l/m O-NO 5,9 km/h (2 Bft)
05.08.2009 22:00 17,3 C 78 % 1017,8 hPa 0,0 l/m N 1,9 km/h (1 Bft)
05.08.2009 23:00 15,9 C 84 % 1017,6 hPa 0,0 l/m N 2,1 km/h (1 Bft)
06.08.2009 00:00 15,1 C 87 % 1017,6 hPa 0,0 l/m O-NO 2,5 km/h (1 Bft)
06.08.2009 01:00 14,6 C 89 % 1017,5 hPa 0,0 l/m NO 3,9 km/h (1 Bft)
06.08.2009 02:00 14,2 C 89 % 1017,3 hPa 0,0 l/m NO 3,7 km/h (1 Bft)
06.08.2009 03:00 13,8 C 89 % 1017,0 hPa 0,0 l/m N-NO 4,8 km/h (1 Bft)
06.08.2009 04:00 13,4 C 91 % 1017,0 hPa 0,0 l/m N-NW 7,1 km/h (2 Bft)
06.08.2009 05:00 13,2 C 91 % 1016,9 hPa 0,0 l/m N-NW 5,7 km/h (1 Bft)
06.08.2009 06:00 12,9 C 92 % 1017,0 hPa 0,0 l/m N-NW 4,5 km/h (1 Bft)
06.08.2009 07:00 13,8 C 92 % 1017,2 hPa 0,0 l/m N-NO 7,5 km/h (2 Bft)
06.08.2009 08:00 16,7 C 82 % 1017,2 hPa 0,0 l/m O-NO 6,9 km/h (2 Bft)
06.08.2009 09:00 19,0 C 75 % 1017,0 hPa 0,0 l/m O 9,5 km/h (2 Bft)
06.08.2009 10:00 21,3 C 66 % 1016,7 hPa 0,0 l/m O-SO 14,1 km/h (3 Bft)
06.08.2009 11:00 23,2 C 59 % 1016,6 hPa 0,0 l/m NO 15,2 km/h (3 Bft)
06.08.2009 12:00 24,5 C 54 % 1016,4 hPa 0,0 l/m O-NO 17,0 km/h (3 Bft)
06.08.2009 13:00 25,5 C 51 % 1016,1 hPa 0,0 l/m O-NO 17,2 km/h (3 Bft)
06.08.2009 14:00 26,1 C 49 % 1015,8 hPa 0,0 l/m O-NO 17,8 km/h (3 Bft)
06.08.2009 15:00 26,7 C 47 % 1015,6 hPa 0,0 l/m O-SO 16,6 km/h (3 Bft)
06.08.2009 16:00 26,9 C 46 % 1015,1 hPa 0,0 l/m O 17,2 km/h (3 Bft)
06.08.2009 17:00 26,9 C 45 % 1015,0 hPa 0,0 l/m O 17,8 km/h (3 Bft)
06.08.2009 18:00 26,3 C 47 % 1014,9 hPa 0,0 l/m O-NO 18,5 km/h (3 Bft)
06.08.2009 19:00 25,3 C 50 % 1014,9 hPa 0,0 l/m O-SO 13,3 km/h (3 Bft)
06.08.2009 20:00 23,7 C 54 % 1015,0 hPa 0,0 l/m O-NO 10,2 km/h (2 Bft)
06.08.2009 21:00 21,8 C 59 % 1015,3 hPa 0,0 l/m O-NO 9,0 km/h (2 Bft)
06.08.2009 22:00 20,1 C 65 % 1015,4 hPa 0,0 l/m O-NO 6,5 km/h (2 Bft)
06.08.2009 23:00 18,0 C 75 % 1015,3 hPa 0,0 l/m O-NO 2,8 km/h (1 Bft)
07.08.2009 00:00 16,5 C 82 % 1015,2 hPa 0,0 l/m N-NO 4,0 km/h (1 Bft)
07.08.2009 01:00 16,0 C 85 % 1014,9 hPa 0,0 l/m NW 6,0 km/h (2 Bft)
07.08.2009 02:00 15,4 C 86 % 1014,5 hPa 0,0 l/m N-NW 6,9 km/h (2 Bft)
07.08.2009 03:00 15,0 C 88 % 1014,3 hPa 0,0 l/m N-NW 5,6 km/h (1 Bft)
07.08.2009 04:00 14,3 C 90 % 1014,3 hPa 0,0 l/m N-NW 3,7 km/h (1 Bft)
07.08.2009 05:00 13,7 C 92 % 1014,3 hPa 0,0 l/m N-NW 4,5 km/h (1 Bft)
07.08.2009 06:00 13,3 C 93 % 1014,3 hPa 0,0 l/m N-NW 2,9 km/h (1 Bft)
07.08.2009 07:00 14,5 C 91 % 1014,6 hPa 0,0 l/m N-NW 3,5 km/h (1 Bft)
07.08.2009 08:00 16,7 C 83 % 1014,7 hPa 0,0 l/m N-NO 4,8 km/h (1 Bft)
07.08.2009 09:00 18,5 C 78 % 1014,7 hPa 0,0 l/m O 4,4 km/h (1 Bft)
07.08.2009 10:00 20,6 C 72 % 1014,6 hPa 0,0 l/m O 5,9 km/h (2 Bft)
07.08.2009 11:00 22,4 C 67 % 1014,5 hPa 0,0 l/m O 6,8 km/h (2 Bft)
07.08.2009 12:00 24,3 C 58 % 1014,3 hPa 0,0 l/m SO 7,4 km/h (2 Bft)
07.08.2009 13:00 25,6 C 50 % 1014,1 hPa 0,0 l/m SO 8,0 km/h (2 Bft)
07.08.2009 14:00 26,2 C 45 % 1014,1 hPa 0,0 l/m N-NW 7,6 km/h (2 Bft)
07.08.2009 15:00 26,8 C 45 % 1013,9 hPa 0,0 l/m W-NW 7,8 km/h (2 Bft)
07.08.2009 16:00 27,3 C 43 % 1013,8 hPa 0,0 l/m NW 8,7 km/h (2 Bft)
07.08.2009 17:00 27,4 C 43 % 1013,6 hPa 0,0 l/m N-NO 8,8 km/h (2 Bft)
07.08.2009 18:00 26,8 C 40 % 1013,4 hPa 0,0 l/m N-NW 7,1 km/h (2 Bft)
07.08.2009 19:00 24,8 C 57 % 1013,4 hPa 0,0 l/m N 3,5 km/h (1 Bft)
07.08.2009 20:00 22,2 C 66 % 1013,7 hPa 0,0 l/m N 1,9 km/h (1 Bft)
07.08.2009 21:00 20,1 C 73 % 1014,2 hPa 0,0 l/m N 1,7 km/h (1 Bft)
07.08.2009 22:00 18,9 C 78 % 1014,7 hPa 0,0 l/m N 2,0 km/h (1 Bft)
07.08.2009 23:00 18,2 C 82 % 1014,9 hPa 0,0 l/m N 2,3 km/h (1 Bft)
08.08.2009 00:00 17,8 C 84 % 1015,1 hPa 0,0 l/m N 3,1 km/h (1 Bft)
08.08.2009 01:00 17,7 C 84 % 1014,9 hPa 0,0 l/m N-NW 5,6 km/h (1 Bft)
08.08.2009 02:00 17,3 C 85 % 1014,8 hPa 0,0 l/m NW 4,0 km/h (1 Bft)
08.08.2009 03:00 16,8 C 87 % 1014,5 hPa 0,0 l/m N-NW 2,3 km/h (1 Bft)
08.08.2009 04:00 16,7 C 87 % 1014,3 hPa 0,0 l/m N-NW 3,1 km/h (1 Bft)
08.08.2009 05:00 16,4 C 87 % 1014,1 hPa 0,0 l/m N 1,1 km/h (0 Bft)
08.08.2009 06:00 15,8 C 89 % 1014,1 hPa 0,0 l/m N-NW 2,5 km/h (1 Bft)
08.08.2009 07:00 16,5 C 88 % 1014,3 hPa 0,0 l/m N-NW 4,1 km/h (1 Bft)
08.08.2009 08:00 18,1 C 82 % 1014,5 hPa 0,0 l/m O-NO 6,3 km/h (2 Bft)
08.08.2009 09:00 20,1 C 76 % 1014,4 hPa 0,0 l/m O-NO 6,8 km/h (2 Bft)
08.08.2009 10:00 22,8 C 66 % 1014,4 hPa 0,0 l/m NO 8,3 km/h (2 Bft)
08.08.2009 11:00 24,4 C 53 % 1014,1 hPa 0,0 l/m O-NO 12,5 km/h (3 Bft)
08.08.2009 12:00 25,5 C 46 % 1013,7 hPa 0,0 l/m O-NO 15,8 km/h (3 Bft)
08.08.2009 13:00 25,6 C 45 % 1013,3 hPa 0,0 l/m O-SO 13,7 km/h (3 Bft)
08.08.2009 14:00 25,9 C 43 % 1013,1 hPa 0,0 l/m NO 14,4 km/h (3 Bft)
08.08.2009 15:00 24,9 C 47 % 1013,1 hPa 0,0 l/m NO 10,9 km/h (2 Bft)
08.08.2009 16:00 23,5 C 58 % 1013,3 hPa 0,0 l/m N-NO 4,8 km/h (1 Bft)
08.08.2009 17:00 22,0 C 69 % 1013,4 hPa 0,0 l/m SO 3,6 km/h (1 Bft)
08.08.2009 18:00 20,8 C 80 % 1013,8 hPa 0,4 l/m SW 14,2 km/h (3 Bft)
08.08.2009 19:00 19,0 C 91 % 1014,2 hPa 1,6 l/m W-NW 18,5 km/h (3 Bft)
08.08.2009 20:00 18,0 C 92 % 1014,4 hPa 0,8 l/m W-NW 11,8 km/h (2 Bft)
08.08.2009 21:00 17,7 C 93 % 1014,9 hPa 0,2 l/m NW 6,3 km/h (2 Bft)
08.08.2009 22:00 17,5 C 94 % 1015,2 hPa 0,0 l/m N 0,8 km/h (0 Bft)
08.08.2009 23:00 17,2 C 95 % 1015,3 hPa 0,0 l/m N 0,5 km/h (0 Bft)
09.08.2009 00:00 17,0 C 95 % 1015,2 hPa 0,0 l/m NW 2,8 km/h (1 Bft)
09.08.2009 01:00 16,8 C 96 % 1015,1 hPa 0,0 l/m N 1,2 km/h (1 Bft)
09.08.2009 02:00 16,8 C 96 % 1014,9 hPa 0,0 l/m N 1,1 km/h (0 Bft)
09.08.2009 03:00 16,7 C 96 % 1014,5 hPa 0,0 l/m NW 0,9 km/h (0 Bft)
09.08.2009 04:00 16,6 C 96 % 1014,5 hPa 0,0 l/m NW 1,7 km/h (1 Bft)
09.08.2009 05:00 16,5 C 96 % 1014,5 hPa 0,0 l/m N 1,2 km/h (1 Bft)
09.08.2009 06:00 16,4 C 96 % 1014,8 hPa 0,0 l/m N 1,2 km/h (1 Bft)
09.08.2009 07:00 16,4 C 97 % 1014,8 hPa 0,0 l/m N-NW 2,9 km/h (1 Bft)
09.08.2009 08:00 16,9 C 95 % 1014,8 hPa 0,0 l/m N-NW 6,1 km/h (2 Bft)
09.08.2009 09:00 17,6 C 92 % 1014,8 hPa 0,0 l/m N-NO 6,5 km/h (2 Bft)
09.08.2009 10:00 18,6 C 88 % 1014,5 hPa 0,0 l/m N 6,1 km/h (2 Bft)
09.08.2009 11:00 19,7 C 82 % 1014,3 hPa 0,0 l/m NO 6,0 km/h (2 Bft)
09.08.2009 12:00 20,7 C 77 % 1014,3 hPa 0,0 l/m N-NO 8,3 km/h (2 Bft)
09.08.2009 13:00 22,5 C 69 % 1014,1 hPa 0,0 l/m NO 10,5 km/h (2 Bft)
09.08.2009 14:00 23,8 C 63 % 1013,5 hPa 0,0 l/m N-NO 12,1 km/h (2 Bft)
09.08.2009 15:00 24,9 C 56 % 1013,2 hPa 0,0 l/m O 13,3 km/h (3 Bft)
09.08.2009 16:00 25,0 C 52 % 1012,9 hPa 0,0 l/m O 13,0 km/h (3 Bft)
09.08.2009 17:00 25,2 C 51 % 1012,6 hPa 0,0 l/m O-SO 13,3 km/h (3 Bft)
09.08.2009 18:00 24,6 C 53 % 1012,5 hPa 0,0 l/m O 13,0 km/h (3 Bft)
09.08.2009 19:00 23,8 C 55 % 1012,3 hPa 0,0 l/m O 7,4 km/h (2 Bft)
09.08.2009 20:00 21,4 C 68 % 1012,4 hPa 0,0 l/m O-NO 3,5 km/h (1 Bft)
09.08.2009 21:00 19,0 C 76 % 1012,8 hPa 0,0 l/m NO 2,9 km/h (1 Bft)
09.08.2009 22:00 18,0 C 81 % 1013,0 hPa 0,0 l/m N 3,2 km/h (1 Bft)
09.08.2009 23:00 17,7 C 83 % 1013,2 hPa 0,0 l/m N 2,9 km/h (1 Bft)
Min-Datum _ 04.08.09 07.08.09 09.08.09 - - 03.08.09
_ Min-Zeit 06:40 18:05 19:20 - - 00:55
Minimum _ 10,6 C 36 % 1012,2 hPa - - 0,0 km/h (0 Bft)
Max-Datum _ 07.08.09 03.08.09 04.08.09 08.08.09 - 08.08.09
_ Max-Zeit 16:55 00:40 23:20 19:00 - 18:45
Maximum _ 27,8 C 98 % 1019,5 hPa 1,6 l/m - 29,0 km/h
S-SW (5 Bft)
Durchschnitt _ 18,6 C 76 % 1015,6 hPa #5,2 l/m O-NO 7,4 km/h (2 Bft)